createdAt,value
2023-06-20T00:02:22.791Z,2.80
2023-06-20T00:04:50.506Z,2.95
2023-06-20T00:07:18.118Z,3.10
2023-06-20T00:09:45.761Z,2.80
2023-06-20T00:12:14.766Z,2.70
2023-06-20T00:14:42.355Z,3.35
2023-06-20T00:17:10.004Z,2.60
2023-06-20T00:19:37.564Z,3.15
2023-06-20T00:22:05.294Z,2.92
2023-06-20T00:24:34.002Z,2.88
2023-06-20T00:27:02.082Z,3.42
2023-06-20T00:29:31.516Z,3.25
2023-06-20T00:31:59.139Z,3.28
2023-06-20T00:34:26.871Z,3.90
2023-06-20T00:36:54.569Z,3.88
2023-06-20T00:39:22.206Z,3.80
2023-06-20T00:41:50.071Z,3.45
2023-06-20T00:44:17.675Z,3.67
2023-06-20T00:46:46.565Z,3.42
2023-06-20T00:49:14.342Z,4.10
2023-06-20T00:51:42.070Z,3.97
2023-06-20T00:54:11.552Z,4.25
2023-06-20T00:59:24.326Z,4.43
2023-06-20T01:01:54.284Z,4.80
2023-06-20T01:04:22.160Z,4.68
2023-06-20T01:06:54.459Z,4.60
2023-06-20T01:09:25.453Z,3.88
2023-06-20T01:11:57.259Z,4.70
2023-06-20T01:14:27.752Z,5.07
2023-06-20T01:16:59.424Z,4.95
2023-06-20T01:19:38.054Z,5.30
2023-06-20T01:22:09.343Z,5.30
2023-06-20T01:24:47.370Z,5.07
2023-06-20T01:27:17.270Z,5.28
2023-06-20T01:29:49.856Z,5.10
2023-06-20T01:32:19.396Z,5.25
2023-06-20T01:34:49.158Z,5.15
2023-06-20T01:37:19.283Z,5.53
2023-06-20T01:39:49.309Z,5.80
2023-06-20T01:42:18.193Z,5.47
2023-06-20T01:44:47.667Z,5.43
2023-06-20T01:47:17.029Z,5.13
2023-06-20T01:49:47.202Z,5.63
2023-06-20T01:52:17.304Z,4.78
2023-06-20T01:54:47.548Z,4.68
2023-06-20T01:57:17.248Z,4.80
2023-06-20T01:59:45.627Z,4.03
2023-06-20T02:02:13.810Z,4.95
2023-06-20T02:04:42.920Z,4.63
2023-06-20T02:07:11.347Z,4.82
2023-06-20T02:09:39.377Z,4.68
2023-06-20T02:12:09.020Z,5.43
2023-06-20T02:14:39.588Z,4.63
2023-06-20T02:17:07.995Z,5.07
2023-06-20T02:19:35.644Z,5.13
2023-06-20T02:22:03.683Z,5.28
2023-06-20T02:24:33.197Z,4.80
2023-06-20T02:27:01.954Z,5.15
2023-06-20T02:29:30.717Z,4.90
2023-06-20T02:32:01.482Z,4.43
2023-06-20T02:34:29.483Z,4.28
2023-06-20T02:36:59.099Z,4.93
2023-06-20T02:39:26.993Z,4.68
2023-06-20T02:41:55.770Z,4.38
2023-06-20T02:44:25.525Z,4.90
2023-06-20T02:46:58.266Z,5.07
2023-06-20T02:49:35.098Z,4.82
2023-06-20T02:52:05.994Z,5.10
2023-06-20T02:54:44.633Z,5.03
2023-06-20T02:57:14.568Z,4.70
2023-06-20T02:59:44.422Z,5.40
2023-06-20T03:02:15.322Z,5.47
2023-06-20T03:04:45.318Z,4.82
2023-06-20T03:07:12.921Z,5.30
2023-06-20T03:09:42.232Z,6.45
2023-06-20T03:12:09.922Z,5.72
2023-06-20T03:14:37.616Z,5.78
2023-06-20T03:17:05.416Z,5.63
2023-06-20T03:19:34.262Z,5.63
2023-06-20T03:22:07.790Z,6.05
2023-06-20T03:24:36.404Z,5.57
2023-06-20T03:27:04.136Z,6.20
2023-06-20T03:29:32.178Z,5.60
2023-06-20T03:31:59.856Z,6.35
2023-06-20T03:34:28.270Z,5.63
2023-06-20T03:36:55.910Z,5.80
2023-06-20T03:39:25.989Z,5.45
2023-06-20T03:41:53.646Z,5.32
2023-06-20T03:44:22.227Z,5.70
2023-06-20T03:46:49.844Z,5.22
2023-06-20T03:49:17.823Z,5.55
2023-06-20T03:51:46.213Z,4.82
2023-06-20T03:54:13.910Z,5.30
2023-06-20T03:56:45.646Z,5.20
2023-06-20T03:59:16.226Z,4.95
2023-06-20T04:01:44.102Z,4.90
2023-06-20T04:04:13.496Z,5.15
2023-06-20T04:06:41.123Z,5.30
2023-06-20T04:09:09.030Z,4.28
2023-06-20T04:11:36.733Z,4.45
2023-06-20T04:14:05.587Z,4.35
2023-06-20T04:16:33.244Z,4.22
2023-06-20T04:19:00.845Z,4.35
2023-06-20T04:21:28.534Z,4.47
2023-06-20T04:23:56.481Z,4.38
2023-06-20T04:26:24.185Z,4.63
2023-06-20T04:28:51.826Z,4.25
2023-06-20T04:31:20.771Z,4.50
2023-06-20T04:33:48.425Z,4.43
2023-06-20T04:36:16.038Z,4.15
2023-06-20T04:38:46.008Z,4.38
2023-06-20T04:41:14.347Z,4.03
2023-06-20T04:43:45.502Z,4.95
2023-06-20T04:46:13.535Z,4.10
2023-06-20T04:48:42.640Z,4.72
2023-06-20T04:51:10.546Z,4.13
2023-06-20T04:53:38.356Z,5.07
2023-06-20T04:56:06.017Z,4.30
2023-06-20T04:58:33.607Z,3.80
2023-06-20T05:01:01.445Z,4.47
2023-06-20T05:03:29.466Z,4.15
2023-06-20T05:05:59.269Z,4.57
2023-06-20T05:08:27.092Z,4.80
2023-06-20T05:10:54.952Z,4.10
2023-06-20T05:13:22.930Z,4.90
2023-06-20T05:15:50.534Z,4.53
2023-06-20T05:18:18.214Z,4.13
2023-06-20T05:20:45.806Z,4.28
2023-06-20T05:23:14.805Z,4.60
2023-06-20T05:25:42.466Z,4.63
2023-06-20T05:28:10.072Z,3.85
2023-06-20T05:30:37.755Z,4.35
2023-06-20T05:33:05.457Z,3.88
2023-06-20T05:35:33.106Z,4.30
2023-06-20T05:38:01.165Z,4.03
2023-06-20T05:40:30.130Z,5.20
2023-06-20T05:42:57.769Z,4.00
2023-06-20T05:45:25.361Z,3.70
2023-06-20T05:47:53.049Z,3.63
2023-06-20T05:50:20.809Z,3.40
2023-06-20T05:52:48.412Z,4.00
2023-06-20T05:55:16.043Z,3.40
2023-06-20T05:57:44.960Z,3.60
2023-06-20T06:00:13.696Z,3.42
2023-06-20T06:02:48.648Z,3.83
2023-06-20T06:05:16.430Z,3.95
2023-06-20T06:07:44.054Z,3.78
2023-06-20T06:10:11.683Z,3.47
2023-06-20T06:12:41.633Z,3.35
2023-06-20T06:15:13.762Z,3.10
2023-06-20T06:17:41.429Z,3.13
2023-06-20T06:20:15.782Z,3.30
2023-06-20T06:22:43.408Z,3.10
2023-06-20T06:25:11.139Z,3.10
2023-06-20T06:27:38.758Z,3.30
2023-06-20T06:30:06.792Z,2.70
2023-06-20T06:32:36.847Z,3.20
2023-06-20T06:35:05.268Z,3.30
2023-06-20T06:37:33.528Z,3.28
2023-06-20T06:40:01.423Z,3.55
2023-06-20T06:42:29.453Z,3.10
2023-06-20T06:44:57.038Z,2.90
2023-06-20T06:47:24.687Z,3.75
2023-06-20T06:49:53.615Z,3.00
2023-06-20T06:52:21.208Z,3.22
2023-06-20T06:54:48.814Z,3.78
2023-06-20T06:57:16.516Z,3.35
2023-06-20T06:59:44.155Z,3.20
2023-06-20T07:02:11.922Z,3.30
2023-06-20T07:04:39.740Z,3.25
2023-06-20T07:07:08.657Z,3.45
2023-06-20T07:09:37.735Z,3.63
2023-06-20T07:12:05.638Z,3.60
2023-06-20T07:14:34.691Z,3.13
2023-06-20T07:17:05.787Z,3.13
2023-06-20T07:19:34.112Z,3.35
2023-06-20T07:22:03.917Z,3.47
2023-06-20T07:24:32.958Z,3.50
2023-06-20T07:27:00.588Z,3.05
2023-06-20T07:29:28.292Z,3.15
2023-06-20T07:31:55.910Z,3.25
2023-06-20T07:34:23.618Z,3.20
2023-06-20T07:36:51.219Z,3.63
2023-06-20T07:39:18.873Z,3.15
2023-06-20T07:41:47.780Z,3.55
2023-06-20T07:44:15.419Z,2.78
2023-06-20T07:46:43.024Z,3.47
2023-06-20T07:49:10.653Z,3.15
2023-06-20T07:51:38.464Z,3.17
2023-06-20T07:54:06.148Z,3.47
2023-06-20T07:56:34.379Z,3.15
2023-06-20T07:59:03.410Z,2.80
2023-06-20T08:01:31.299Z,3.17
2023-06-20T08:03:59.486Z,3.58
2023-06-20T08:06:27.225Z,3.60
2023-06-20T08:08:54.815Z,3.47
2023-06-20T08:11:23.070Z,3.20
2023-06-20T08:13:50.775Z,3.30
2023-06-20T08:16:19.781Z,3.35
2023-06-20T08:18:47.392Z,3.30
2023-06-20T08:21:15.008Z,3.20
2023-06-20T08:23:42.563Z,3.17
2023-06-20T08:26:10.158Z,3.83
2023-06-20T08:28:37.807Z,3.28
2023-06-20T08:31:05.978Z,3.20
2023-06-20T08:33:35.007Z,3.10
2023-06-20T08:36:03.655Z,3.03
2023-06-20T08:38:31.289Z,2.97
2023-06-20T08:40:59.160Z,3.78
2023-06-20T08:43:29.946Z,2.88
2023-06-20T08:45:57.904Z,3.00
2023-06-20T08:48:25.580Z,2.70
2023-06-20T08:50:54.492Z,3.45
2023-06-20T08:53:24.135Z,2.75
2023-06-20T08:55:53.292Z,2.50
2023-06-20T08:58:21.001Z,2.53
2023-06-20T09:00:49.856Z,2.72
2023-06-20T09:03:17.975Z,2.60
2023-06-20T09:05:47.440Z,2.55
2023-06-20T09:08:16.995Z,2.72
2023-06-20T09:10:45.933Z,2.97
2023-06-20T09:13:13.994Z,3.42
2023-06-20T09:15:42.199Z,3.03
2023-06-20T09:18:14.044Z,3.22
2023-06-20T09:20:44.061Z,3.80
2023-06-20T09:23:11.678Z,3.45
2023-06-20T09:25:41.743Z,3.60
2023-06-20T09:28:14.969Z,3.40
2023-06-20T09:30:45.749Z,3.60
2023-06-20T09:33:15.018Z,4.00
2023-06-20T09:35:42.722Z,3.47
2023-06-20T09:38:10.863Z,3.95
2023-06-20T09:40:44.805Z,3.67
2023-06-20T09:43:12.535Z,3.33
2023-06-20T09:45:40.164Z,3.22
2023-06-20T09:48:09.374Z,3.70
2023-06-20T09:50:39.285Z,3.63
2023-06-20T09:53:10.929Z,4.07
2023-06-20T09:55:38.911Z,3.83
2023-06-20T09:58:07.919Z,3.85
2023-06-20T10:00:36.739Z,3.17
2023-06-20T10:03:08.120Z,3.60
2023-06-20T10:05:36.885Z,3.47
2023-06-20T10:08:05.097Z,3.38
2023-06-20T10:10:32.733Z,3.50
2023-06-20T10:13:01.366Z,4.82
2023-06-20T10:15:30.390Z,3.88
2023-06-20T10:17:58.108Z,3.85
2023-06-20T10:20:27.704Z,3.53
2023-06-20T10:22:59.021Z,4.32
2023-06-20T10:25:27.739Z,4.32
2023-06-20T10:27:56.752Z,4.70
2023-06-20T10:30:39.197Z,4.40
2023-06-20T10:33:09.237Z,4.30
2023-06-20T10:35:37.921Z,3.40
2023-06-20T10:38:09.676Z,4.63
2023-06-20T10:40:37.575Z,4.20
2023-06-20T10:43:08.890Z,3.53
2023-06-20T10:45:36.946Z,3.60
2023-06-20T10:48:04.759Z,4.38
2023-06-20T10:50:33.859Z,3.90
2023-06-20T10:53:03.071Z,3.97
2023-06-20T10:55:30.773Z,4.65
2023-06-20T10:57:58.682Z,4.78
2023-06-20T11:00:26.673Z,4.47
2023-06-20T11:02:55.358Z,4.32
2023-06-20T11:05:25.495Z,4.82
2023-06-20T11:07:55.788Z,4.63
2023-06-20T11:10:27.771Z,5.00
2023-06-20T11:12:55.902Z,5.00
2023-06-20T11:15:24.722Z,4.47
2023-06-20T11:17:52.970Z,4.40
2023-06-20T11:20:21.762Z,4.30
2023-06-20T11:22:49.812Z,4.53
2023-06-20T11:25:26.992Z,4.32
2023-06-20T11:27:54.715Z,4.80
2023-06-20T11:30:26.384Z,4.60
2023-06-20T11:33:02.881Z,4.47
2023-06-20T11:35:42.061Z,3.35
2023-06-20T11:38:10.738Z,3.50
2023-06-20T11:40:39.662Z,3.83
2023-06-20T11:43:07.654Z,4.00
2023-06-20T11:45:35.697Z,4.22
2023-06-20T11:48:11.054Z,4.03
2023-06-20T11:50:38.954Z,4.05
2023-06-20T11:53:06.821Z,3.70
2023-06-20T11:55:45.576Z,4.68
2023-06-20T11:58:14.492Z,3.70
2023-06-20T12:00:45.059Z,4.22
2023-06-20T12:03:12.714Z,3.95
2023-06-20T12:05:41.753Z,4.00
2023-06-20T12:08:09.756Z,4.40
2023-06-20T12:10:40.428Z,4.32
2023-06-20T12:13:08.127Z,3.95
2023-06-20T12:15:37.660Z,4.35
2023-06-20T12:18:05.293Z,3.90
2023-06-20T12:20:35.815Z,3.67
2023-06-20T12:23:04.851Z,4.30
2023-06-20T12:25:33.061Z,4.15
2023-06-20T12:28:01.859Z,4.72
2023-06-20T12:30:31.821Z,4.72
2023-06-20T12:33:01.377Z,4.20
2023-06-20T12:35:29.083Z,4.30
2023-06-20T12:37:57.263Z,3.60
2023-06-20T12:40:25.838Z,4.53
2023-06-20T12:42:53.814Z,4.45
2023-06-20T12:45:21.367Z,3.83
2023-06-20T12:47:49.037Z,3.83
2023-06-20T12:50:18.103Z,4.15
2023-06-20T12:52:46.472Z,4.13
2023-06-20T12:55:14.811Z,3.70
2023-06-20T12:57:42.563Z,4.45
2023-06-20T13:00:10.978Z,4.60
2023-06-20T13:02:39.954Z,4.60
2023-06-20T13:05:09.055Z,4.28
2023-06-20T13:07:38.284Z,4.65
2023-06-20T13:10:07.408Z,4.75
2023-06-20T13:12:36.133Z,5.07
2023-06-20T13:15:07.827Z,4.60
2023-06-20T13:17:37.393Z,5.50
2023-06-20T13:20:07.258Z,4.45
2023-06-20T13:22:35.072Z,4.90
2023-06-20T13:25:04.745Z,5.43
2023-06-20T13:27:32.533Z,5.53
2023-06-20T13:30:00.158Z,5.13
2023-06-20T13:32:27.855Z,4.93
2023-06-20T13:34:55.570Z,4.90
2023-06-20T13:37:23.262Z,4.80
2023-06-20T13:39:50.940Z,5.22
2023-06-20T13:42:19.775Z,5.65
2023-06-20T13:44:47.357Z,4.65
2023-06-20T13:47:15.565Z,4.50
2023-06-20T13:49:43.270Z,4.55
2023-06-20T13:52:11.428Z,5.13
2023-06-20T13:54:39.049Z,5.13
2023-06-20T13:57:06.889Z,5.43
2023-06-20T13:59:36.261Z,5.25
2023-06-20T14:02:04.010Z,5.15
2023-06-20T14:04:31.618Z,5.18
2023-06-20T14:06:59.438Z,5.82
2023-06-20T14:09:28.154Z,5.63
2023-06-20T14:11:55.715Z,5.57
2023-06-20T14:14:26.648Z,5.80
2023-06-20T14:16:55.834Z,5.65
2023-06-20T14:19:23.453Z,5.60
2023-06-20T14:21:51.287Z,6.28
2023-06-20T14:24:18.881Z,5.65
2023-06-20T14:26:46.584Z,5.25
2023-06-20T14:29:14.342Z,5.95
2023-06-20T14:31:42.198Z,5.43
2023-06-20T14:34:11.113Z,4.50
2023-06-20T14:36:38.864Z,5.20
2023-06-20T14:39:06.621Z,5.72
2023-06-20T14:41:34.299Z,5.22
2023-06-20T14:44:01.916Z,5.38
2023-06-20T14:46:29.677Z,4.57
2023-06-20T14:48:57.344Z,4.80
2023-06-20T14:51:26.268Z,5.22
2023-06-20T14:53:53.999Z,4.72
2023-06-20T14:56:21.620Z,5.13
2023-06-20T14:58:49.261Z,5.50
2023-06-20T15:01:16.946Z,4.80
2023-06-20T15:03:44.661Z,4.63
2023-06-20T15:06:12.304Z,4.88
2023-06-20T15:08:41.261Z,4.97
2023-06-20T15:11:09.033Z,5.10
2023-06-20T15:13:36.629Z,4.90
2023-06-20T15:16:04.471Z,5.60
2023-06-20T15:18:32.974Z,5.13
2023-06-20T15:21:00.589Z,4.95
2023-06-20T15:23:28.279Z,5.63
2023-06-20T15:25:57.126Z,4.18
2023-06-20T15:28:24.782Z,4.55
2023-06-20T15:30:52.314Z,5.10
2023-06-20T15:33:19.975Z,4.35
2023-06-20T15:35:47.772Z,5.30
2023-06-20T15:38:15.494Z,4.65
2023-06-20T15:40:43.568Z,4.47
2023-06-20T15:43:12.447Z,4.13
2023-06-20T15:45:40.642Z,4.15
2023-06-20T15:48:09.485Z,5.20
2023-06-20T15:50:37.178Z,4.47
2023-06-20T15:53:04.786Z,4.63
2023-06-20T15:55:32.391Z,4.93
2023-06-20T15:58:00.092Z,4.63
2023-06-20T16:00:29.261Z,4.93
2023-06-20T16:02:57.062Z,4.95
2023-06-20T16:05:24.854Z,5.40
2023-06-20T16:07:52.525Z,5.57
2023-06-20T16:10:20.742Z,5.70
2023-06-20T16:12:48.744Z,5.38
2023-06-20T16:15:16.373Z,6.05
2023-06-20T16:17:45.358Z,5.45
2023-06-20T16:20:13.229Z,5.90
2023-06-20T16:22:41.106Z,5.38
2023-06-20T16:25:08.957Z,5.07
2023-06-20T16:27:36.602Z,5.78
2023-06-20T16:30:04.671Z,5.20
2023-06-20T16:32:32.644Z,5.80
2023-06-20T16:35:02.193Z,4.95
2023-06-20T16:37:29.882Z,5.03
2023-06-20T16:39:58.660Z,5.20
2023-06-20T16:42:26.300Z,5.55
2023-06-20T16:44:54.205Z,5.18
2023-06-20T16:47:22.018Z,5.28
2023-06-20T16:49:49.761Z,5.30
2023-06-20T16:52:18.934Z,5.55
2023-06-20T16:54:46.924Z,5.68
2023-06-20T16:57:16.276Z,5.35
2023-06-20T16:59:44.147Z,5.68
2023-06-20T17:02:13.278Z,5.45
2023-06-20T17:04:40.968Z,5.95
2023-06-20T17:07:08.651Z,5.32
2023-06-20T17:09:37.522Z,5.53
2023-06-20T17:12:05.267Z,5.65
2023-06-20T17:14:32.976Z,6.25
2023-06-20T17:17:01.025Z,5.97
2023-06-20T17:19:29.544Z,5.18
2023-06-20T17:22:09.831Z,4.90
2023-06-20T17:24:41.484Z,4.00
2023-06-20T17:27:10.335Z,4.47
2023-06-20T17:29:39.040Z,4.53
2023-06-20T17:34:34.285Z,4.13
2023-06-20T17:37:01.852Z,3.90
2023-06-20T17:39:29.474Z,3.75
2023-06-20T17:41:58.384Z,4.10
2023-06-20T17:44:27.038Z,4.15
2023-06-20T17:46:56.940Z,3.75
2023-06-20T17:49:24.800Z,4.10
2023-06-20T17:51:52.529Z,4.22
2023-06-20T17:54:20.123Z,3.55
2023-06-20T17:56:49.730Z,3.97
2023-06-20T17:59:18.838Z,3.85
2023-06-20T18:01:47.471Z,4.45
2023-06-20T18:04:15.663Z,4.22
2023-06-20T18:06:43.462Z,4.18
2023-06-20T18:09:11.231Z,3.80
2023-06-20T18:11:39.148Z,4.20
2023-06-20T18:14:06.766Z,4.13
2023-06-20T18:16:35.790Z,3.88
2023-06-20T18:19:03.475Z,3.67
2023-06-20T18:21:31.564Z,3.75
2023-06-20T18:23:59.221Z,4.00
2023-06-20T18:26:26.840Z,3.53
2023-06-20T18:28:54.646Z,3.90
2023-06-20T18:31:22.477Z,4.07
2023-06-20T18:33:51.432Z,4.45
2023-06-20T18:36:19.080Z,4.38
2023-06-20T18:38:46.641Z,3.90
2023-06-20T18:41:14.319Z,4.78
2023-06-20T18:43:42.731Z,4.65
2023-06-20T18:46:10.439Z,3.55
2023-06-20T18:48:37.995Z,3.92
2023-06-20T18:51:06.926Z,3.50
2023-06-20T18:53:34.548Z,4.03
2023-06-20T18:56:02.231Z,4.43
2023-06-20T18:58:31.272Z,4.32
2023-06-20T19:01:00.237Z,4.88
2023-06-20T19:03:28.033Z,4.25
2023-06-20T19:05:55.802Z,3.90
2023-06-20T19:08:24.730Z,4.47
2023-06-20T19:10:54.263Z,4.03
2023-06-20T19:13:22.584Z,4.38
2023-06-20T19:15:51.261Z,4.00
2023-06-20T19:18:19.045Z,4.60
2023-06-20T19:20:46.634Z,4.35
2023-06-20T19:23:14.338Z,4.10
2023-06-20T19:25:43.613Z,4.30
2023-06-20T19:28:12.324Z,3.95
2023-06-20T19:30:39.942Z,4.38
2023-06-20T19:33:07.696Z,5.60
2023-06-20T19:35:35.334Z,5.25
2023-06-20T19:38:03.069Z,5.00
2023-06-20T19:40:30.659Z,5.57
2023-06-20T19:42:59.715Z,5.97
2023-06-20T19:45:34.225Z,5.13
2023-06-20T19:48:03.433Z,5.57
2023-06-20T19:50:31.132Z,5.43
2023-06-20T19:52:59.565Z,5.95
2023-06-20T19:55:27.277Z,6.03
2023-06-20T19:57:54.914Z,4.95
2023-06-20T20:00:23.904Z,4.60
2023-06-20T20:02:52.138Z,5.25
2023-06-20T20:05:19.839Z,5.30
2023-06-20T20:07:47.449Z,5.82
2023-06-20T20:10:15.015Z,4.97
2023-06-20T20:12:43.859Z,6.00
2023-06-20T20:15:11.780Z,5.43
2023-06-20T20:17:40.912Z,5.15
2023-06-20T20:20:08.908Z,5.13
2023-06-20T20:22:36.892Z,5.47
2023-06-20T20:27:35.457Z,5.85
2023-06-20T20:30:03.177Z,5.03
2023-06-20T20:32:32.105Z,5.13
2023-06-20T20:35:01.073Z,5.53
2023-06-20T20:37:28.762Z,5.72
2023-06-20T20:39:58.737Z,5.88
2023-06-20T20:42:26.418Z,5.45
2023-06-20T20:44:55.623Z,5.20
2023-06-20T20:47:23.235Z,5.40
2023-06-20T20:49:50.953Z,5.97
2023-06-20T20:52:19.932Z,5.13
2023-06-20T20:54:47.906Z,4.57
2023-06-20T20:57:15.531Z,4.70
2023-06-20T20:59:43.134Z,5.10
2023-06-20T21:02:11.000Z,4.85
2023-06-20T21:04:38.649Z,5.35
2023-06-20T21:07:06.639Z,4.95
2023-06-20T21:09:35.533Z,4.70
2023-06-20T21:12:03.377Z,5.43
2023-06-20T21:14:32.666Z,5.13
2023-06-20T21:17:00.387Z,4.65
2023-06-20T21:19:28.074Z,4.80
2023-06-20T21:21:55.763Z,5.57
2023-06-20T21:24:23.427Z,4.80
2023-06-20T21:26:52.392Z,5.25
2023-06-20T21:29:20.125Z,5.38
2023-06-20T21:31:49.348Z,5.57
2023-06-20T21:34:16.941Z,5.40
2023-06-20T21:36:44.673Z,5.28
2023-06-20T21:39:12.375Z,5.05
2023-06-20T21:41:39.976Z,5.63
2023-06-20T21:44:08.823Z,5.38
2023-06-20T21:46:36.503Z,5.30
2023-06-20T21:49:04.471Z,5.43
2023-06-20T21:51:32.818Z,4.57
2023-06-20T21:54:00.472Z,5.68
2023-06-20T21:56:28.347Z,5.32
2023-06-20T21:58:55.945Z,4.90
2023-06-20T22:01:24.846Z,5.40
2023-06-20T22:03:52.554Z,4.95
2023-06-20T22:06:20.450Z,4.80
2023-06-20T22:08:48.013Z,4.45
2023-06-20T22:11:15.693Z,5.07
2023-06-20T22:13:43.732Z,4.50
2023-06-20T22:16:11.367Z,4.88
2023-06-20T22:18:40.317Z,4.35
2023-06-20T22:21:08.014Z,4.80
2023-06-20T22:23:35.756Z,4.35
2023-06-20T22:26:03.346Z,4.45
2023-06-20T22:28:30.941Z,4.95
2023-06-20T22:30:58.691Z,4.30
2023-06-20T22:33:27.570Z,4.40
2023-06-20T22:35:56.597Z,4.47
2023-06-20T22:38:24.713Z,4.53
2023-06-20T22:40:52.746Z,4.20
2023-06-20T22:43:20.431Z,5.00
2023-06-20T22:45:48.336Z,3.92
2023-06-20T22:48:17.172Z,3.88
2023-06-20T22:50:45.611Z,5.10
2023-06-20T22:53:14.566Z,4.30
2023-06-20T22:55:42.244Z,4.50
2023-06-20T22:58:09.855Z,3.97
2023-06-20T23:00:37.716Z,4.22
2023-06-20T23:03:05.389Z,3.83
2023-06-20T23:05:33.054Z,4.30
2023-06-20T23:08:00.702Z,3.85
2023-06-20T23:10:29.859Z,4.28
2023-06-20T23:12:57.683Z,4.53
2023-06-20T23:15:25.284Z,3.50
2023-06-20T23:17:52.897Z,4.30
2023-06-20T23:20:20.562Z,4.70
2023-06-20T23:22:48.520Z,3.92
2023-06-20T23:25:19.069Z,4.15
2023-06-20T23:27:47.983Z,3.80
2023-06-20T23:30:15.853Z,4.25
2023-06-20T23:32:44.091Z,3.95
2023-06-20T23:35:11.751Z,3.95
2023-06-20T23:37:40.241Z,3.72
2023-06-20T23:40:10.390Z,3.75
2023-06-20T23:42:38.612Z,4.45
2023-06-20T23:45:08.917Z,3.75
2023-06-20T23:47:36.680Z,3.70
2023-06-20T23:50:04.475Z,3.78
2023-06-20T23:52:33.413Z,3.97
2023-06-20T23:55:01.864Z,3.83
2023-06-20T23:57:33.443Z,4.00
